createdAt,value
2023-05-14T00:00:44.050Z,8.55
2023-05-14T00:03:10.829Z,9.10
2023-05-14T00:05:37.670Z,8.00
2023-05-14T00:08:04.789Z,9.32
2023-05-14T00:10:32.626Z,10.27
2023-05-14T00:12:59.278Z,9.15
2023-05-14T00:15:27.261Z,9.07
2023-05-14T00:17:53.923Z,8.93
2023-05-14T00:20:20.688Z,8.68
2023-05-14T00:22:47.397Z,8.93
2023-05-14T00:25:14.057Z,9.25
2023-05-14T00:27:40.682Z,9.40
2023-05-14T00:30:08.098Z,9.35
2023-05-14T00:32:36.174Z,9.60
2023-05-14T00:35:02.822Z,9.52
2023-05-14T00:37:29.465Z,9.85
2023-05-14T00:39:56.110Z,9.43
2023-05-14T00:42:22.749Z,9.60
2023-05-14T00:44:49.336Z,9.88
2023-05-14T00:47:15.999Z,9.10
2023-05-14T00:49:44.071Z,9.80
2023-05-14T00:52:11.750Z,9.85
2023-05-14T00:54:38.776Z,9.02
2023-05-14T00:57:06.590Z,9.80
2023-05-14T00:59:33.339Z,9.50
2023-05-14T01:02:00.232Z,9.85
2023-05-14T01:04:27.111Z,9.70
2023-05-14T01:07:07.639Z,10.68
2023-05-14T01:09:42.326Z,9.23
2023-05-14T01:12:17.248Z,9.80
2023-05-14T01:14:52.318Z,10.23
2023-05-14T01:17:20.451Z,9.90
2023-05-14T01:19:48.301Z,10.50
2023-05-14T01:22:16.308Z,11.55
2023-05-14T01:24:43.175Z,11.60
2023-05-14T01:27:16.547Z,11.93
2023-05-14T01:32:13.471Z,11.18
2023-05-14T01:34:41.048Z,10.75
2023-05-14T01:37:09.979Z,10.80
2023-05-14T01:39:39.179Z,10.57
2023-05-14T01:42:07.645Z,11.80
2023-05-14T01:44:34.628Z,10.77
2023-05-14T01:47:01.206Z,10.90
2023-05-14T01:49:27.907Z,10.30
2023-05-14T01:51:54.473Z,10.75
2023-05-14T01:54:21.166Z,9.80
2023-05-14T01:56:49.172Z,10.85
2023-05-14T01:59:15.820Z,10.18
2023-05-14T02:01:42.449Z,10.02
2023-05-14T02:04:09.128Z,11.05
2023-05-14T02:06:35.832Z,10.63
2023-05-14T02:09:02.597Z,10.88
2023-05-14T02:11:29.395Z,11.05
2023-05-14T02:13:57.412Z,10.93
2023-05-14T02:16:24.090Z,11.07
2023-05-14T02:18:50.876Z,10.63
2023-05-14T02:21:17.456Z,10.15
2023-05-14T02:23:44.079Z,11.35
2023-05-14T02:26:11.267Z,10.98
2023-05-14T02:28:37.917Z,11.02
2023-05-14T02:31:05.969Z,10.95
2023-05-14T02:33:32.821Z,10.85
2023-05-14T02:35:59.478Z,10.88
2023-05-14T02:38:26.713Z,10.52
2023-05-14T02:40:53.419Z,9.98
2023-05-14T02:43:20.010Z,9.85
2023-05-14T02:45:47.154Z,10.05
2023-05-14T02:48:15.304Z,9.95
2023-05-14T02:50:42.027Z,9.77
2023-05-14T02:53:08.680Z,10.10
2023-05-14T02:55:35.538Z,10.15
2023-05-14T02:58:02.165Z,9.80
2023-05-14T03:00:28.875Z,10.35
2023-05-14T03:02:56.144Z,10.40
2023-05-14T03:05:24.654Z,10.20
2023-05-14T03:07:51.853Z,10.30
2023-05-14T03:10:18.536Z,10.63
2023-05-14T03:12:45.294Z,10.85
2023-05-14T03:15:11.931Z,10.27
2023-05-14T03:17:38.602Z,10.38
2023-05-14T03:20:06.444Z,10.13
2023-05-14T03:22:34.546Z,10.38
2023-05-14T03:25:01.201Z,10.18
2023-05-14T03:27:27.836Z,10.43
2023-05-14T03:29:54.511Z,9.98
2023-05-14T03:32:21.315Z,9.20
2023-05-14T03:34:48.063Z,10.20
2023-05-14T03:37:14.746Z,10.80
2023-05-14T03:39:42.750Z,9.85
2023-05-14T03:42:09.405Z,9.55
2023-05-14T03:44:36.027Z,8.70
2023-05-14T03:47:02.786Z,9.48
2023-05-14T03:49:29.407Z,9.18
2023-05-14T03:51:56.140Z,8.82
2023-05-14T03:54:22.802Z,9.63
2023-05-14T03:56:51.357Z,9.18
2023-05-14T03:59:18.264Z,9.15
2023-05-14T04:01:44.992Z,9.00
2023-05-14T04:04:11.889Z,9.30
2023-05-14T04:06:38.941Z,9.50
2023-05-14T04:09:05.525Z,9.68
2023-05-14T04:11:32.183Z,9.32
2023-05-14T04:14:00.172Z,8.30
2023-05-14T04:16:26.823Z,8.50
2023-05-14T04:18:53.408Z,8.50
2023-05-14T04:21:20.142Z,8.15
2023-05-14T04:23:46.765Z,8.25
2023-05-14T04:26:13.709Z,8.38
2023-05-14T04:28:40.280Z,7.88
2023-05-14T04:31:08.318Z,7.13
2023-05-14T04:33:34.952Z,6.70
2023-05-14T04:36:01.633Z,6.97
2023-05-14T04:38:28.333Z,7.88
2023-05-14T04:40:54.921Z,6.60
2023-05-14T04:43:21.592Z,6.53
2023-05-14T04:45:48.238Z,7.22
2023-05-14T04:48:16.417Z,6.10
2023-05-14T04:50:43.218Z,6.75
2023-05-14T04:53:10.030Z,6.60
2023-05-14T04:55:36.936Z,6.03
2023-05-14T04:58:03.640Z,6.38
2023-05-14T05:00:30.213Z,6.38
2023-05-14T05:02:56.986Z,6.55
2023-05-14T05:05:25.069Z,6.28
2023-05-14T05:07:51.786Z,5.88
2023-05-14T05:10:18.429Z,6.60
2023-05-14T05:12:45.223Z,6.22
2023-05-14T05:15:11.928Z,6.85
2023-05-14T05:17:38.572Z,6.03
2023-05-14T05:20:06.588Z,5.95
2023-05-14T05:22:34.574Z,6.05
2023-05-14T05:25:01.157Z,6.88
2023-05-14T05:27:27.822Z,6.20
2023-05-14T05:29:54.423Z,5.88
2023-05-14T05:32:21.121Z,6.30
2023-05-14T05:34:47.836Z,6.20
2023-05-14T05:37:14.502Z,5.53
2023-05-14T05:39:42.455Z,6.18
2023-05-14T05:42:09.178Z,6.07
2023-05-14T05:44:35.810Z,6.13
2023-05-14T05:47:02.630Z,5.50
2023-05-14T05:49:29.404Z,6.10
2023-05-14T05:51:56.115Z,5.50
2023-05-14T05:54:23.646Z,6.03
2023-05-14T05:56:52.195Z,5.97
2023-05-14T05:59:18.873Z,5.88
2023-05-14T06:01:45.864Z,5.38
2023-05-14T06:04:12.472Z,5.45
2023-05-14T06:06:39.120Z,5.13
2023-05-14T06:09:05.758Z,5.55
2023-05-14T06:11:32.508Z,5.88
2023-05-14T06:14:00.583Z,4.97
2023-05-14T06:16:27.341Z,4.65
2023-05-14T06:18:54.249Z,4.68
2023-05-14T06:21:20.904Z,4.50
2023-05-14T06:23:47.638Z,4.32
2023-05-14T06:26:14.264Z,4.00
2023-05-14T06:28:40.888Z,4.53
2023-05-14T06:31:08.840Z,3.90
2023-05-14T06:33:35.502Z,3.30
2023-05-14T06:36:04.722Z,4.13
2023-05-14T06:38:31.813Z,3.72
2023-05-14T06:40:58.476Z,3.88
2023-05-14T06:43:25.205Z,3.90
2023-05-14T06:45:52.217Z,3.90
2023-05-14T06:48:21.462Z,3.78
2023-05-14T06:50:49.425Z,4.07
2023-05-14T06:53:16.035Z,3.95
2023-05-14T06:55:42.701Z,3.85
2023-05-14T06:58:09.729Z,3.65
2023-05-14T07:00:36.487Z,3.30
2023-05-14T07:03:03.301Z,3.13
2023-05-14T07:05:31.385Z,3.30
2023-05-14T07:07:58.348Z,3.20
2023-05-14T07:10:25.199Z,3.00
2023-05-14T07:12:52.107Z,3.20
2023-05-14T07:15:18.888Z,3.40
2023-05-14T07:17:45.656Z,3.47
2023-05-14T07:20:13.233Z,3.28
2023-05-14T07:22:41.232Z,3.20
2023-05-14T07:25:08.773Z,3.42
2023-05-14T07:27:35.375Z,3.20
2023-05-14T07:30:02.145Z,2.95
2023-05-14T07:32:28.942Z,3.40
2023-05-14T07:34:55.637Z,3.40
2023-05-14T07:37:23.715Z,3.10
2023-05-14T07:39:52.559Z,3.20
2023-05-14T07:42:31.729Z,3.00
2023-05-14T07:45:01.821Z,3.53
2023-05-14T07:47:29.626Z,3.40
2023-05-14T07:49:56.452Z,3.40
2023-05-14T07:52:23.136Z,3.03
2023-05-14T07:54:52.150Z,3.20
2023-05-14T07:57:19.271Z,3.25
2023-05-14T07:59:45.895Z,3.38
2023-05-14T08:02:12.820Z,3.40
2023-05-14T08:04:39.732Z,3.55
2023-05-14T08:07:06.536Z,3.08
2023-05-14T08:09:33.193Z,3.50
2023-05-14T08:12:01.167Z,3.25
2023-05-14T08:14:27.818Z,3.22
2023-05-14T08:16:54.622Z,3.28
2023-05-14T08:19:21.395Z,3.40
2023-05-14T08:21:48.070Z,3.03
2023-05-14T08:24:14.627Z,2.80
2023-05-14T08:26:41.272Z,3.90
2023-05-14T08:29:10.640Z,3.38
2023-05-14T08:31:38.431Z,2.63
2023-05-14T08:34:05.064Z,3.00
2023-05-14T08:36:31.930Z,3.00
2023-05-14T08:38:58.758Z,3.22
2023-05-14T08:41:25.564Z,3.33
2023-05-14T08:44:03.161Z,2.78
2023-05-14T08:46:32.900Z,3.03
2023-05-14T08:49:08.377Z,3.13
2023-05-14T08:51:35.715Z,2.85
2023-05-14T08:54:03.133Z,2.55
2023-05-14T08:56:32.783Z,3.22
2023-05-14T08:58:59.538Z,2.90
2023-05-14T09:01:26.651Z,3.15
2023-05-14T09:03:55.056Z,3.05
2023-05-14T09:06:22.558Z,3.20
2023-05-14T09:08:49.569Z,3.10
2023-05-14T09:11:16.304Z,2.92
2023-05-14T09:13:42.905Z,2.90
2023-05-14T09:16:09.647Z,3.00
2023-05-14T09:18:36.764Z,2.90
2023-05-14T09:21:04.997Z,2.72
2023-05-14T09:23:32.745Z,3.92
2023-05-14T09:25:59.393Z,3.28
2023-05-14T09:28:26.053Z,3.20
2023-05-14T09:30:52.762Z,2.92
2023-05-14T09:33:26.374Z,3.28
2023-05-14T09:35:57.648Z,2.47
2023-05-14T09:38:29.449Z,2.75
2023-05-14T09:40:56.069Z,2.70
2023-05-14T09:43:22.735Z,3.20
2023-05-14T09:45:49.344Z,2.60
2023-05-14T09:48:16.094Z,3.03
2023-05-14T09:50:43.342Z,2.60
2023-05-14T09:53:10.233Z,2.60
2023-05-14T09:55:38.847Z,3.17
2023-05-14T09:58:05.927Z,2.88
2023-05-14T10:00:34.153Z,2.72
2023-05-14T10:03:05.467Z,2.78
2023-05-14T10:05:34.952Z,3.13
2023-05-14T10:08:05.668Z,2.97
2023-05-14T10:10:35.370Z,2.95
2023-05-14T10:13:05.484Z,2.90
2023-05-14T10:15:37.051Z,3.13
2023-05-14T10:18:13.013Z,2.85
2023-05-14T10:20:40.800Z,2.80
2023-05-14T10:23:07.531Z,3.13
2023-05-14T10:25:34.726Z,3.40
2023-05-14T10:28:03.364Z,2.95
2023-05-14T10:30:29.997Z,2.90
2023-05-14T10:33:06.888Z,3.08
2023-05-14T10:35:50.910Z,2.92
2023-05-14T10:38:17.828Z,3.15
2023-05-14T10:40:44.527Z,3.38
2023-05-14T10:43:13.598Z,3.33
2023-05-14T10:45:40.321Z,2.80
2023-05-14T10:48:07.105Z,2.80
2023-05-14T10:50:34.659Z,3.35
2023-05-14T10:53:01.205Z,3.72
2023-05-14T10:55:27.905Z,3.28
2023-05-14T10:57:54.699Z,4.00
2023-05-14T11:00:26.347Z,3.38
2023-05-14T11:02:56.432Z,3.05
2023-05-14T11:05:23.360Z,2.85
2023-05-14T11:07:51.157Z,3.13
2023-05-14T11:10:19.225Z,3.10
2023-05-14T11:12:47.702Z,3.17
2023-05-14T11:15:16.512Z,3.47
2023-05-14T11:17:45.755Z,3.22
2023-05-14T11:20:13.093Z,3.42
2023-05-14T11:22:41.661Z,3.08
2023-05-14T11:25:09.512Z,2.80
2023-05-14T11:27:38.250Z,3.67
2023-05-14T11:30:06.038Z,3.85
2023-05-14T11:32:33.478Z,3.33
2023-05-14T11:35:01.551Z,3.70
2023-05-14T11:37:28.199Z,3.00
2023-05-14T11:39:59.256Z,3.72
2023-05-14T11:42:29.981Z,3.30
2023-05-14T11:44:56.620Z,3.13
2023-05-14T11:47:23.272Z,3.20
2023-05-14T11:49:49.976Z,3.35
2023-05-14T11:52:18.012Z,3.70
2023-05-14T11:54:45.468Z,3.63
2023-05-14T11:57:14.509Z,3.10
2023-05-14T11:59:42.012Z,3.50
2023-05-14T12:02:10.414Z,3.35
2023-05-14T12:04:37.350Z,3.83
2023-05-14T12:07:09.327Z,3.40
2023-05-14T12:09:39.302Z,6.22
2023-05-14T12:12:10.507Z,3.45
2023-05-14T12:14:38.121Z,3.20
2023-05-14T12:17:11.826Z,3.10
2023-05-14T12:19:40.666Z,3.28
2023-05-14T12:22:08.097Z,3.13
2023-05-14T12:24:34.724Z,3.75
2023-05-14T12:27:03.651Z,3.90
2023-05-14T12:29:30.393Z,2.97
2023-05-14T12:31:58.090Z,4.38
2023-05-14T12:34:24.855Z,3.67
2023-05-14T12:36:51.560Z,3.33
2023-05-14T12:39:18.112Z,3.60
2023-05-14T12:41:44.724Z,3.10
2023-05-14T12:44:12.717Z,2.70
2023-05-14T12:46:39.388Z,2.75
2023-05-14T12:49:06.035Z,3.40
2023-05-14T12:51:32.748Z,3.50
2023-05-14T12:53:59.351Z,3.70
2023-05-14T12:56:26.004Z,3.08
2023-05-14T12:58:52.704Z,3.22
2023-05-14T13:01:20.745Z,3.00
2023-05-14T13:03:47.400Z,3.35
2023-05-14T13:06:14.215Z,3.47
2023-05-14T13:08:42.605Z,3.30
2023-05-14T13:11:09.415Z,3.63
2023-05-14T13:13:36.106Z,3.40
2023-05-14T13:16:03.427Z,3.33
2023-05-14T13:18:31.512Z,3.45
2023-05-14T13:20:58.351Z,3.50
2023-05-14T13:23:24.997Z,3.42
2023-05-14T13:25:51.574Z,3.38
2023-05-14T13:28:18.182Z,3.25
2023-05-14T13:31:04.096Z,3.10
2023-05-14T13:33:32.862Z,3.00
2023-05-14T13:35:59.789Z,3.40
2023-05-14T13:38:26.664Z,3.65
2023-05-14T13:40:53.318Z,3.47
2023-05-14T13:43:20.268Z,3.05
2023-05-14T13:45:47.030Z,3.38
2023-05-14T13:48:13.720Z,4.28
2023-05-14T13:50:41.773Z,3.53
2023-05-14T13:53:08.436Z,3.03
2023-05-14T13:55:35.015Z,3.53
2023-05-14T13:58:02.439Z,3.33
2023-05-14T14:00:29.114Z,3.33
2023-05-14T14:02:55.833Z,3.40
2023-05-14T14:05:22.777Z,3.28
2023-05-14T14:07:52.935Z,3.55
2023-05-14T14:10:21.539Z,3.28
2023-05-14T14:12:48.400Z,3.35
2023-05-14T14:15:15.403Z,3.30
2023-05-14T14:17:42.077Z,2.95
2023-05-14T14:20:09.706Z,3.55
2023-05-14T14:22:36.985Z,3.08
2023-05-14T14:25:05.650Z,3.22
2023-05-14T14:27:32.329Z,3.05
2023-05-14T14:29:58.981Z,3.28
2023-05-14T14:32:25.636Z,3.40
2023-05-14T14:34:52.429Z,3.20
2023-05-14T14:37:20.614Z,3.00
2023-05-14T14:39:47.896Z,3.25
2023-05-14T14:42:15.911Z,2.92
2023-05-14T14:44:42.740Z,3.10
2023-05-14T14:47:09.453Z,3.25
2023-05-14T14:49:36.127Z,3.10
2023-05-14T14:52:02.805Z,3.25
2023-05-14T14:54:29.535Z,3.13
2023-05-14T14:56:56.192Z,3.42
2023-05-14T14:59:24.221Z,2.88
2023-05-14T15:01:50.933Z,2.72
2023-05-14T15:04:17.534Z,3.45
2023-05-14T15:06:44.172Z,3.20
2023-05-14T15:09:10.785Z,2.78
2023-05-14T15:11:37.763Z,3.10
2023-05-14T15:14:04.638Z,3.00
2023-05-14T15:16:32.648Z,3.13
2023-05-14T15:18:59.397Z,2.78
2023-05-14T15:21:26.191Z,2.65
2023-05-14T15:23:52.787Z,2.75
2023-05-14T15:26:19.403Z,3.22
2023-05-14T15:28:45.963Z,3.10
2023-05-14T15:31:12.748Z,2.95
2023-05-14T15:33:40.754Z,3.17
2023-05-14T15:36:08.371Z,2.65
2023-05-14T15:38:35.235Z,3.30
2023-05-14T15:41:01.915Z,3.33
2023-05-14T15:43:28.480Z,3.10
2023-05-14T15:45:55.178Z,3.78
2023-05-14T15:48:21.810Z,3.47
2023-05-14T15:50:49.987Z,3.35
2023-05-14T15:53:16.632Z,3.03
2023-05-14T15:55:43.320Z,2.92
2023-05-14T15:58:10.015Z,3.00
2023-05-14T16:00:36.673Z,3.88
2023-05-14T16:03:03.485Z,3.70
2023-05-14T16:05:30.162Z,3.63
2023-05-14T16:07:58.616Z,3.15
2023-05-14T16:10:25.532Z,4.00
2023-05-14T16:12:52.608Z,3.67
2023-05-14T16:15:19.487Z,3.55
2023-05-14T16:17:46.198Z,3.90
2023-05-14T16:20:13.020Z,3.55
2023-05-14T16:22:39.868Z,3.30
2023-05-14T16:25:08.380Z,3.10
2023-05-14T16:27:35.181Z,3.10
2023-05-14T16:30:01.856Z,3.33
2023-05-14T16:32:28.562Z,3.15
2023-05-14T16:34:55.157Z,2.85
2023-05-14T16:37:21.874Z,3.47
2023-05-14T16:39:48.818Z,3.13
2023-05-14T16:42:16.953Z,3.47
2023-05-14T16:44:43.955Z,3.40
2023-05-14T16:47:11.220Z,3.30
2023-05-14T16:49:37.812Z,3.55
2023-05-14T16:52:05.957Z,3.20
2023-05-14T16:54:32.613Z,3.53
2023-05-14T16:56:59.338Z,3.17
2023-05-14T16:59:27.324Z,2.88
2023-05-14T17:01:54.107Z,2.67
2023-05-14T17:04:20.824Z,3.30
2023-05-14T17:06:47.581Z,3.17
2023-05-14T17:09:14.234Z,3.42
2023-05-14T17:11:40.981Z,2.88
2023-05-14T17:14:07.770Z,3.17
2023-05-14T17:16:35.865Z,3.10
2023-05-14T17:19:02.535Z,3.60
2023-05-14T17:21:29.323Z,3.45
2023-05-14T17:23:55.902Z,3.50
2023-05-14T17:26:23.033Z,3.70
2023-05-14T17:28:49.704Z,3.13
2023-05-14T17:31:16.337Z,3.45
2023-05-14T17:33:44.424Z,3.20
2023-05-14T17:36:11.152Z,3.50
2023-05-14T17:38:37.871Z,3.53
2023-05-14T17:41:04.695Z,3.10
2023-05-14T17:43:31.403Z,3.28
2023-05-14T17:45:58.113Z,3.30
2023-05-14T17:48:24.801Z,4.18
2023-05-14T17:50:52.791Z,4.00
2023-05-14T17:53:19.524Z,3.50
2023-05-14T17:55:46.186Z,3.60
2023-05-14T17:58:13.876Z,3.78
2023-05-14T18:00:40.781Z,3.70
2023-05-14T18:03:08.062Z,3.33
2023-05-14T18:05:34.889Z,3.40
2023-05-14T18:08:02.977Z,4.03
2023-05-14T18:10:29.720Z,3.55
2023-05-14T18:12:56.373Z,3.45
2023-05-14T18:15:23.297Z,3.65
2023-05-14T18:17:50.153Z,3.75
2023-05-14T18:20:16.999Z,3.47
2023-05-14T18:22:43.609Z,3.70
2023-05-14T18:25:11.596Z,3.47
2023-05-14T18:27:38.210Z,3.97
2023-05-14T18:30:06.070Z,3.95
2023-05-14T18:32:32.832Z,3.58
2023-05-14T18:34:59.548Z,4.60
2023-05-14T18:37:26.160Z,4.25
2023-05-14T18:39:52.837Z,3.72
2023-05-14T18:42:20.909Z,3.72
2023-05-14T18:44:47.523Z,3.78
2023-05-14T18:47:14.404Z,3.80
2023-05-14T18:49:41.066Z,3.90
2023-05-14T18:52:08.008Z,3.90
2023-05-14T18:54:34.728Z,4.00
2023-05-14T18:57:01.641Z,4.55
2023-05-14T18:59:29.684Z,3.85
2023-05-14T19:01:56.457Z,4.22
2023-05-14T19:04:23.187Z,3.88
2023-05-14T19:06:50.943Z,4.13
2023-05-14T19:09:17.705Z,4.50
2023-05-14T19:11:44.339Z,3.50
2023-05-14T19:14:10.994Z,4.10
2023-05-14T19:16:39.740Z,3.60
2023-05-14T19:19:07.136Z,4.55
2023-05-14T19:21:33.929Z,3.53
2023-05-14T19:24:00.609Z,4.05
2023-05-14T19:26:27.748Z,4.10
2023-05-14T19:28:54.340Z,3.88
2023-05-14T19:31:20.993Z,4.22
2023-05-14T19:33:49.073Z,4.35
2023-05-14T19:36:15.862Z,4.00
2023-05-14T19:38:42.441Z,4.10
2023-05-14T19:41:09.209Z,3.90
2023-05-14T19:43:35.894Z,3.97
2023-05-14T19:46:03.035Z,4.07
2023-05-14T19:48:30.537Z,4.45
2023-05-14T19:50:58.582Z,4.18
2023-05-14T19:53:25.375Z,4.03
2023-05-14T19:55:51.995Z,4.10
2023-05-14T19:58:18.613Z,4.93
2023-05-14T20:00:45.324Z,6.57
2023-05-14T20:03:11.988Z,6.97
2023-05-14T20:05:38.789Z,5.85
2023-05-14T20:08:07.020Z,5.93
2023-05-14T20:10:33.683Z,5.05
2023-05-14T20:13:00.268Z,6.60
2023-05-14T20:15:26.996Z,6.03
2023-05-14T20:17:53.772Z,6.22
2023-05-14T20:20:20.637Z,5.55
2023-05-14T20:22:47.240Z,6.30
2023-05-14T20:25:15.633Z,5.55
2023-05-14T20:27:42.466Z,6.00
2023-05-14T20:30:09.599Z,5.05
2023-05-14T20:32:36.354Z,5.45
2023-05-14T20:35:03.304Z,5.30
2023-05-14T20:37:30.494Z,4.97
2023-05-14T20:39:57.143Z,5.35
2023-05-14T20:42:25.475Z,5.50
2023-05-14T20:44:53.045Z,5.07
2023-05-14T20:47:21.202Z,4.60
2023-05-14T20:49:48.234Z,5.30
2023-05-14T20:52:14.934Z,5.00
2023-05-14T20:54:42.001Z,5.40
2023-05-14T20:57:08.821Z,5.40
2023-05-14T20:59:36.841Z,4.97
2023-05-14T21:02:03.656Z,5.40
2023-05-14T21:04:31.070Z,5.78
2023-05-14T21:06:57.866Z,5.05
2023-05-14T21:09:24.496Z,5.38
2023-05-14T21:11:51.204Z,5.97
2023-05-14T21:14:17.813Z,5.97
2023-05-14T21:16:46.182Z,6.00
2023-05-14T21:19:15.258Z,5.80
2023-05-14T21:21:42.195Z,5.30
2023-05-14T21:24:08.802Z,5.47
2023-05-14T21:26:36.324Z,6.10
2023-05-14T21:29:03.650Z,5.75
2023-05-14T21:31:30.281Z,5.72
2023-05-14T21:33:58.259Z,5.93
2023-05-14T21:36:24.993Z,6.65
2023-05-14T21:38:53.193Z,6.80
2023-05-14T21:41:19.898Z,6.30
2023-05-14T21:43:46.521Z,6.13
2023-05-14T21:46:13.400Z,6.22
2023-05-14T21:48:40.237Z,6.22
2023-05-14T21:51:08.449Z,6.35
2023-05-14T21:53:35.078Z,6.13
2023-05-14T21:56:01.667Z,5.78
2023-05-14T21:58:28.338Z,6.40
2023-05-14T22:00:55.016Z,6.93
2023-05-14T22:03:21.760Z,6.18
2023-05-14T22:05:48.470Z,6.38
2023-05-14T22:08:16.449Z,6.63
2023-05-14T22:10:43.055Z,5.65
2023-05-14T22:13:09.667Z,6.75
2023-05-14T22:15:36.265Z,6.85
2023-05-14T22:18:02.924Z,6.32
2023-05-14T22:20:29.601Z,7.30
2023-05-14T22:22:56.255Z,6.55
2023-05-14T22:25:24.423Z,6.75
2023-05-14T22:27:51.372Z,6.55
2023-05-14T22:30:17.999Z,6.85
2023-05-14T22:32:44.799Z,6.30
2023-05-14T22:35:11.473Z,6.60
2023-05-14T22:37:38.152Z,7.50
2023-05-14T22:40:05.937Z,7.03
2023-05-14T22:42:33.936Z,6.97
2023-05-14T22:45:00.549Z,7.78
2023-05-14T22:47:27.220Z,7.65
2023-05-14T22:49:53.903Z,6.93
2023-05-14T22:52:20.688Z,8.00
2023-05-14T22:54:47.288Z,7.43
2023-05-14T22:57:13.997Z,8.02
2023-05-14T22:59:42.119Z,7.70
2023-05-14T23:02:08.879Z,7.75
2023-05-14T23:04:35.654Z,7.68
2023-05-14T23:07:02.325Z,7.57
2023-05-14T23:09:28.940Z,7.60
2023-05-14T23:11:55.559Z,7.50
2023-05-14T23:14:22.175Z,7.72
2023-05-14T23:16:50.211Z,7.50
2023-05-14T23:19:16.992Z,7.53
2023-05-14T23:21:43.758Z,7.15
2023-05-14T23:24:10.431Z,8.43
2023-05-14T23:26:37.080Z,8.00
2023-05-14T23:29:03.731Z,7.63
2023-05-14T23:31:30.454Z,7.47
2023-05-14T23:33:58.510Z,7.60
2023-05-14T23:36:25.264Z,7.75
2023-05-14T23:38:51.998Z,7.80
2023-05-14T23:41:18.632Z,7.85
2023-05-14T23:43:45.248Z,7.45
2023-05-14T23:46:11.971Z,8.43
2023-05-14T23:48:38.682Z,8.35
2023-05-14T23:51:06.717Z,7.30
2023-05-14T23:53:33.374Z,7.68
2023-05-14T23:56:00.176Z,8.02
2023-05-14T23:58:26.877Z,7.75
